Wolf Island, Missouri
Current Conditions -  °F | °C
As of 9:15 AM on Monday 24 Nov 2014 (Local Time) from KCIR Reporting Station
Overcast Overcast  
Wind Chill: 42°   Ceiling: 3600
Heat Index: 47°   Visibility: 10mi
Dew Point: 36°   Wind: 14mph
Humidity: 65%   Direction: 230°SW
Pressure: 29.72"   Gusts: 22mph
Location:  36.74°N, 89.21°W
Report Text: KCIR 241515Z AUTO 23012G19KT 10SM OVC036 09/02 A2972 RMK AO2 T00860023
Loading
Personal Weather Stations






























Interactive Weather Map New forecast layout! Learn more

10-Day Weather Forecast

Advertisements
Track Severe Weather on mobile